West Plains, MO

11:51 AM CDT on March 27, 2017 (GMT -0500)
West Plains Municipal | | Change Station

Elev 1227 ft 36.88 °N, 91.90 °W | Updated 39 minutes ago

Light Rain
Light Rain Mist
55 °F
Feels Like 55 °F
N
9
Wind Variable Wind from SSE

Today
High -- | Low -- °F
--% Chance of Precip.
Yesterday
High -- | Low -- °F
Precip. -- in
Pressure 29.83 in
Visibility 4.0 miles
Clouds Mostly Cloudy 6500 ft
Overcast 7500 ft
Dew Point 54 °F
Humidity 96%
Rainfall 0.95 in
Snow Depth Not available.
7:00 AM 7:25 PM
Waning Crescent, 0% visible
SPECI KUNO 271612Z AUTO 16008KT 4SM -RA BR BKN065 OVC075 13/12 A2983 RMK AO2 LTG DSNT SE AND S P0007 T01280122
Pressure 29.83 in
Visibility 4.0 miles
Clouds Mostly Cloudy 6500 ft
Overcast 7500 ft
Dew Point 54 °F
Humidity 96%
Rainfall 0.95 in
Snow Depth Not available.
7:00 AM 7:25 PM
Waning Crescent, 0% visible
SPECI KUNO 271612Z AUTO 16008KT 4SM -RA BR BKN065 OVC075 13/12 A2983 RMK AO2 LTG DSNT SE AND S P0007 T01280122

Get Severe Weather Alerts

Thanks for signing up!

Be on the lookout for a verification email in your inbox.

You'll start receiving the daily forecast at 8 AM.

×

10-Day Weather Forecast

Almanac

Astronomy

Mar. 27, 2017 Rise Set
Actual Time
Civil Twilight
Nautical Twilight
Astronomical Twilight
Moon
Length of Visible Light
Length of Day
Tomorrow will be .
, % of the Moon is Illuminated

Today's Extremes

State Highs State Lows

Community

WunderPhotos

Upload Photos

1,962,540 photos uploaded!

WunderBlog® & News

Nearby

Air Quality

  Air Quality AQ Index Pollutant
Not available.

Snow Depth

Station Depth Elevation

Earthquake Activity

City Distance Mag. Time & Date
Minimum magnitude displayed is 2.5.

Earthquake Activity

City Distance Mag. Time & Date
Minimum magnitude displayed is 2.5.

Coastal Water Temperatures

Place Temperature

Stations

Nearby Weather Stations

Station Location Temp. Windchill Dew Point Humidity Wind Precip. Elev Updated Type
                   

Watches & Warnings

There are currently no watches in effect.